Medicine Hat Airport
CYXH : now visible

Airfield :











YOU CAN JOIN US ON...

 
LOGIN :

Register | Disclaimer

   EN    FR    IT 

 









Legend :    VFR   Marginal VFR   IFR   Intensive IFR   Very Intensive IFR
Visi :
Ceiling :
>= 8 km
>= 3000ft
5 to 8 km
1000 to 3000 ft
1500m to 5 km
500 to 1000 ft
800 to 1500m
200 to 500 ft
< 800m
< 200 ft
Symbols :   Thunderstorms  Fog  Heavy snow  Heavy precipitations  Wind > 20 kt






- Airport Elevation : 2352 ft
- IATA code : YXH


CYXH - Medicine Hat

CURRENT METAR :
  • 050753Z AUTO 27012G17KT 9SM BKN006 OVC031 M09/M12 A2983 RMK SLP145

EXPIRED METARs :
  • 050736Z AUTO 28015KT 9SM SCT006 SCT010 OVC031 M09/M12 A2982 RMK PRESRR SLP141
  • 050727Z AUTO 29016G23KT 9SM SCT006 BKN010 OVC031 M08/M12 A2981 RMK SLP130
  • 050700Z AUTO 28019G25KT 9SM OVC008 M07/M10 A2979 RMK SLP124
  • 050639Z AUTO 27015KT 9SM OVC008 M05/M06 A2978 RMK SLP122
  • 050613Z AUTO 27013G18KT 8SM -SN FEW005 BKN008 BKN018 OVC022 M04/M05 A2978 RMK SLP119
  • 050602Z AUTO 27014KT 9SM BKN008 BKN018 OVC022 M03/M04 A2977 RMK SLP114

TAF TAF CYXH
Valid from the 05 at 06:00 until the 05 at 18:00 UTC


050540Z 0506/0518 28012KT P6SM SCT005 OVC025
TEMPO 0506/0508 5SM -SN BKN005 OVC020
FM050800 32018G28KT 1SM -SN BLSN VV010
TEMPO 0508/0514 4SM -SN OVC015
FM051400 33015G25KT 6SM -SN SCT015 BKN025 BKN080
TEMPO 0514/0518 2SM -SN BKN015 OVC025 RMK FCST BASED ON AUTO OBS. NXT FCST BY 051200Z
CZEG FIR / North America



MET'MAP, your aeronautical weather chart ! - Copyright ORBIFLY December 2007 - Disclaimer

ORBIFLY MET'MAP TEAM :

Programming & Development : Alexandra Zaïnal
Concept & original design : Baudouin d'Aumeries
Assistance for programming : Marc-Olivier Méhu
Technical & hardware support : Manuel Goepfert

Contact : metmap@orbifly.com




SOURCES & CREDITS :

   NOAA       Earth
Advisory